ADDS METAR Data INFO
IDs: Format: Raw Decoded Include TAF

Data at: 0622 UTC 15 Dec 2017

KIER 150615Z AUTO 36005KT 10SM CLR 06/04 A3013 RMK AO2 T00580040
KIER 150555Z AUTO 34005KT 10SM CLR 06/04 A3013 RMK AO2 T00560040 10091 20036 401560002
KIER 150535Z AUTO 30004KT 10SM CLR 05/04 A3013 RMK AO2 T00450036
KIER 150515Z AUTO 00000KT 10SM CLR 04/03 A3012 RMK AO2 T00400034
KIER 150455Z AUTO 00000KT 10SM CLR 04/03 A3011 RMK AO2 T00400033
KIER 150435Z AUTO 00000KT 10SM CLR 04/03 A3010 RMK AO2 T00360031
KIER 150415Z AUTO 00000KT 10SM CLR 04/04 A3009 RMK AO2 T00420035
KIER 150355Z AUTO 00000KT 10SM CLR 05/04 A3009 RMK AO2 T00470039
KIER 150335Z AUTO 00000KT 10SM CLR 05/04 A3009 RMK AO2 T00510037
KIER 150315Z AUTO 00000KT 10SM CLR 06/04 A3009 RMK AO2 T00600039
KIER 150255Z AUTO 36003KT 10SM CLR 06/04 A3007 RMK AO2 T00600042
KIER 150235Z AUTO 36003KT 10SM CLR 06/04 A3007 RMK AO2 T00620042
KIER 150215Z AUTO 00000KT 10SM CLR 06/04 A3007 RMK AO2 T00560040
KIER 150200Z AUTO 00000KT 10SM CLR 06/04 A3007 RMK AO2 T00630043
KIER 150135Z AUTO 00000KT 10SM CLR 07/05 A3006 RMK AO2 T00660045
KIER 150115Z AUTO 00000KT 10SM CLR 07/05 A3005 RMK AO2 T00710046
KIER 150055Z AUTO 00000KT 10SM CLR 08/05 A3005 RMK AO2 T00760047
KIER 150035Z AUTO 00000KT 10SM CLR 09/05 A3003 RMK AO2 T00880046
KIER 150015Z AUTO 00000KT 10SM CLR 09/05 A3003 RMK AO2 T00900048
KIER 142355Z AUTO 00000KT 10SM CLR 09/05 A3002 RMK AO2 T00940048 10156 20094
KIER 142335Z AUTO 00000KT 10SM CLR 10/05 A3001 RMK AO2 T01000048
KIER 142315Z AUTO 00000KT 10SM CLR 11/04 A3000 RMK AO2 T01100044
KIER 142255Z AUTO 00000KT 10SM CLR 12/04 A2998 RMK AO2 T01220042
KIER 142235Z AUTO 00000KT 10SM CLR 13/03 A2998 RMK AO2 T01330034
KIER 142215Z AUTO 00000KT 10SM CLR 14/04 A2998 RMK AO2 T01370036
KIER 142155Z AUTO 00000KT 10SM CLR 14/03 A2998 RMK AO2 T01380033
KIER 142135Z AUTO 00000KT 10SM CLR 14/03 A2998 RMK AO2 T01400030
KIER 142115Z AUTO 00000KT 10SM CLR 14/03 A2997 RMK AO2 T01400027
KIER 142055Z AUTO 00000KT 10SM CLR 14/03 A2997 RMK AO2 T01410033
KIER 142035Z AUTO 00000KT 10SM CLR 14/03 A2996 RMK AO2 T01400031
KIER 142015Z AUTO 00000KT 10SM CLR 14/03 A2997 RMK AO2 T01370033
KIER 141955Z AUTO 06003KT 10SM CLR 14/03 A2997 RMK AO2 T01410030
KIER 141935Z AUTO 07003KT 10SM CLR 15/03 A2997 RMK AO2 T01520028
KIER 141915Z AUTO 00000KT 10SM CLR 15/03 A2997 RMK AO2 T01460027
KIER 141855Z AUTO 03004KT 10SM CLR 15/03 A2998 RMK AO2 T01450030
KIER 141835Z AUTO 00000KT 10SM CLR 14/04 A2998 RMK AO2 T01350041
KIER 141815Z AUTO 00000KT 10SM CLR 13/04 A2999 RMK AO2 T01260042
KIER 141755Z AUTO 35003KT 10SM CLR 13/04 A3000 RMK AO2 T01250040 10125 20013
KIER 141735Z AUTO 00000KT 10SM CLR 11/04 A3001 RMK AO2 T01070041
KIER 141715Z AUTO 00000KT 10SM CLR 11/04 A3002 RMK AO2 T01070042
KIER 141655Z AUTO 00000KT 10SM CLR 10/04 A3003 RMK AO2 T00990041
KIER 141635Z AUTO 00000KT 10SM CLR 09/04 A3003 RMK AO2 T00910040
KIER 141615Z AUTO 00000KT 10SM CLR 08/04 A3002 RMK AO2 T00810040
KIER 141555Z AUTO 00000KT 10SM CLR 07/04 A3002 RMK AO2 T00740038
KIER 141535Z AUTO 00000KT 10SM CLR 07/03 A3002 RMK AO2 T00650032
KIER 141515Z AUTO 00000KT 10SM CLR 06/03 A3001 RMK AO2 T00580034
KIER 141455Z AUTO 00000KT 10SM CLR 05/03 A3000 RMK AO2 T00500028
KIER 141435Z AUTO 00000KT 10SM CLR 04/03 A3000 RMK AO2 T00410026
KIER 141415Z AUTO 00000KT 10SM CLR 04/03 A2998 RMK AO2 T00380026
KIER 141355Z AUTO 00000KT 10SM CLR 03/02 A2999 RMK AO2 T00300019
KIER 141335Z AUTO 00000KT 10SM CLR 02/01 A2998 RMK AO2 T00240010
KIER 141315Z AUTO 00000KT 10SM CLR 02/01 A2997 RMK AO2 T00180011
KIER 141255Z AUTO 00000KT 10SM CLR 02/01 A2996 RMK AO2 T00160007
KIER 141235Z AUTO 00000KT 10SM CLR 02/01 A2997 RMK AO2 T00160008
KIER 141215Z AUTO 00000KT 10SM CLR 01/01 A2996 RMK AO2 T00140007
KIER 141155Z AUTO 00000KT 10SM CLR 02/01 A2995 RMK AO2 T00150006 10031 20002
KIER 141135Z AUTO 00000KT 10SM CLR 01/01 A2994 RMK AO2 T00120006
KIER 141115Z AUTO 00000KT 10SM CLR 01/01 A2994 RMK AO2 T00110007
KIER 141055Z AUTO 00000KT 10SM CLR 01/00 A2994 RMK AO2 T00080004
KIER 141035Z AUTO 00000KT 10SM CLR 01/00 A2994 RMK AO2 T00050001
KIER 141015Z AUTO 00000KT 10SM CLR 01/00 A2994 RMK AO2 T00070002
KIER 140955Z AUTO 00000KT 10SM CLR 01/00 A2994 RMK AO2 T00060002
KIER 140935Z AUTO 00000KT 10SM CLR 01/00 A2994 RMK AO2 T00050001
KIER 140915Z AUTO 00000KT 10SM CLR 01/00 A2995 RMK AO2 T00090002
KIER 140855Z AUTO 00000KT 10SM CLR 02/01 A2995 RMK AO2 T00150007
KIER 140835Z AUTO 00000KT 10SM CLR 02/01 A2994 RMK AO2 T00170006
KIER 140815Z AUTO 00000KT 10SM CLR 02/01 A2995 RMK AO2 T00170007
KIER 140755Z AUTO 00000KT 10SM CLR 02/01 A2994 RMK AO2 T00200009
KIER 140735Z AUTO 00000KT 10SM CLR 02/01 A2995 RMK AO2 T00230010
KIER 140715Z AUTO 00000KT 10SM CLR 03/01 A2994 RMK AO2 T00250008
KIER 140655Z AUTO 00000KT 10SM CLR 02/01 A2995 RMK AO2 T00240007
KIER 140635Z AUTO 00000KT 10SM CLR 02/01 A2995 RMK AO2 T00210006
KIER 140615Z AUTO 00000KT 10SM CLR 03/01 A2995 RMK AO2 T00310010
KIER 140555Z AUTO 00000KT 10SM CLR 03/01 A2995 RMK AO2 T00290009 10095 20024 401711040
KIER 140535Z AUTO 00000KT 10SM CLR 03/00 A2996 RMK AO2 T00260004
KIER 140515Z AUTO 00000KT 10SM CLR 02/00 A2996 RMK AO2 T00241001
KIER 140455Z AUTO 19003KT 10SM CLR 04/01 A2996 RMK AO2 T00370005
KIER 140435Z AUTO 20003KT 10SM CLR 05/01 A2996 RMK AO2 T00480010
KIER 140415Z AUTO 00000KT 10SM CLR 05/01 A2997 RMK AO2 T00450005
KIER 140355Z AUTO 00000KT 10SM CLR 06/00 A2997 RMK AO2 T00640004
KIER 140335Z AUTO 00000KT 10SM CLR 08/01 A2997 RMK AO2 T00760007
KIER 140315Z AUTO 00000KT 10SM CLR 08/01 A2997 RMK AO2 T00780007
KIER 140255Z AUTO 22004KT 10SM CLR 08/01 A2996 RMK AO2 T00820010
KIER 140235Z AUTO 22004KT 10SM CLR 08/01 A2996 RMK AO2 T00830009
KIER 140215Z AUTO 22004KT 10SM CLR 08/01 A2996 RMK AO2 T00810008
KIER 140155Z AUTO 22003KT 10SM CLR 08/01 A2996 RMK AO2 T00840007
KIER 140135Z AUTO 21004KT 10SM CLR 08/01 A2996 RMK AO2 T00830007
KIER 140115Z AUTO 20004KT 10SM CLR 09/01 A2996 RMK AO2 T00850005
KIER 140055Z AUTO 19004KT 10SM CLR 09/01 A2996 RMK AO2 T00890005
KIER 140035Z AUTO 19005KT 10SM CLR 09/00 A2996 RMK AO2 T00850004
KIER 140015Z AUTO 18003KT 10SM CLR 09/00 A2997 RMK AO2 T00910002
KIER 132355Z AUTO 20004KT 10SM CLR 10/00 A2997 RMK AO2 T00990002 10171 20099
KIER 132335Z AUTO 19004KT 10SM CLR 11/00 A2998 RMK AO2 T01050000
KIER 132315Z AUTO 19005KT 10SM CLR 11/00 A2998 RMK AO2 T01131001
KIER 132255Z AUTO 21005KT 10SM CLR 12/M01 A2998 RMK AO2 T01221006
KIER 132235Z AUTO 21006KT 10SM CLR 13/M01 A2999 RMK AO2 T01321010
KIER 132215Z AUTO 21004KT 10SM CLR 14/M01 A3000 RMK AO2 T01431009
KIER 132155Z AUTO 20005KT 10SM CLR 15/M01 A3000 RMK AO2 T01531008
KIER 132135Z AUTO 21009KT 10SM CLR 16/M01 A3000 RMK AO2 T01631010
KIER 132115Z AUTO 23008G14KT 10SM CLR 17/M01 A3001 RMK AO2 T01651015
KIER 132055Z AUTO 25009KT 10SM CLR 17/M02 A3001 RMK AO2 T01661020
KIER 132035Z AUTO 23010G15KT 10SM CLR 16/M03 A3001 RMK AO2 T01631030
KIER 132015Z AUTO 24006KT 10SM CLR 17/M02 A3001 RMK AO2 T01671021
KIER 131955Z AUTO 21008KT 10SM CLR 17/M02 A3002 RMK AO2 T01671020
KIER 131935Z AUTO 24010G16KT 10SM CLR 16/M02 A3003 RMK AO2 T01641020
KIER 131915Z AUTO 22009G15KT 10SM CLR 16/M03 A3004 RMK AO2 T01551027
KIER 131900Z AUTO 22009G15KT 10SM CLR 16/M02 A3004 RMK AO2 T01571024
KIER 131835Z AUTO 23008KT 200V260 10SM CLR 15/M03 A3006 RMK AO2 T01541026